sensor_id;sensor_type;location;lat;lon;timestamp;P1;durP1;ratioP1;P2;durP2;ratioP2
71202;SDS011;58929;47.490;19.090;2023-06-14T00:00:08;9.63;;;6.75;;
71202;SDS011;58929;47.490;19.090;2023-06-14T00:02:39;9.35;;;7.25;;
71202;SDS011;58929;47.490;19.090;2023-06-14T00:05:07;10.27;;;7.63;;
71202;SDS011;58929;47.490;19.090;2023-06-14T00:07:40;14.95;;;7.57;;
71202;SDS011;58929;47.490;19.090;2023-06-14T00:10:09;13.15;;;7.22;;
71202;SDS011;58929;47.490;19.090;2023-06-14T00:12:38;11.82;;;8.23;;
71202;SDS011;58929;47.490;19.090;2023-06-14T00:15:09;10.57;;;7.00;;
71202;SDS011;58929;47.490;19.090;2023-06-14T00:17:44;12.18;;;7.68;;
71202;SDS011;58929;47.490;19.090;2023-06-14T00:20:14;10.60;;;7.75;;
71202;SDS011;58929;47.490;19.090;2023-06-14T00:22:44;13.15;;;8.02;;
71202;SDS011;58929;47.490;19.090;2023-06-14T00:25:12;9.90;;;6.85;;
71202;SDS011;58929;47.490;19.090;2023-06-14T00:27:55;11.35;;;7.70;;
71202;SDS011;58929;47.490;19.090;2023-06-14T00:30:24;13.05;;;7.38;;
71202;SDS011;58929;47.490;19.090;2023-06-14T00:32:57;11.02;;;8.45;;
71202;SDS011;58929;47.490;19.090;2023-06-14T00:35:25;9.30;;;7.63;;
71202;SDS011;58929;47.490;19.090;2023-06-14T00:37:55;10.65;;;7.93;;
71202;SDS011;58929;47.490;19.090;2023-06-14T00:40:23;11.30;;;7.93;;
71202;SDS011;58929;47.490;19.090;2023-06-14T00:42:51;11.07;;;7.60;;
71202;SDS011;58929;47.490;19.090;2023-06-14T00:45:19;11.93;;;7.15;;
71202;SDS011;58929;47.490;19.090;2023-06-14T00:47:48;9.35;;;7.60;;
71202;SDS011;58929;47.490;19.090;2023-06-14T00:50:21;8.02;;;6.47;;
71202;SDS011;58929;47.490;19.090;2023-06-14T00:52:49;11.98;;;7.72;;
71202;SDS011;58929;47.490;19.090;2023-06-14T00:55:19;9.82;;;6.50;;
71202;SDS011;58929;47.490;19.090;2023-06-14T00:57:48;12.35;;;7.72;;
71202;SDS011;58929;47.490;19.090;2023-06-14T01:00:16;9.73;;;7.00;;
71202;SDS011;58929;47.490;19.090;2023-06-14T01:02:45;8.68;;;6.72;;
71202;SDS011;58929;47.490;19.090;2023-06-14T01:05:13;9.07;;;7.15;;
71202;SDS011;58929;47.490;19.090;2023-06-14T01:07:55;10.32;;;6.60;;
71202;SDS011;58929;47.490;19.090;2023-06-14T01:10:31;9.40;;;7.68;;
71202;SDS011;58929;47.490;19.090;2023-06-14T01:13:02;8.15;;;7.28;;
71202;SDS011;58929;47.490;19.090;2023-06-14T01:15:33;11.02;;;6.72;;
71202;SDS011;58929;47.490;19.090;2023-06-14T01:18:03;9.38;;;6.90;;
71202;SDS011;58929;47.490;19.090;2023-06-14T01:20:33;13.13;;;8.35;;
71202;SDS011;58929;47.490;19.090;2023-06-14T01:23:06;12.98;;;8.02;;
71202;SDS011;58929;47.490;19.090;2023-06-14T01:25:34;11.07;;;7.78;;
71202;SDS011;58929;47.490;19.090;2023-06-14T01:28:05;11.43;;;8.18;;
71202;SDS011;58929;47.490;19.090;2023-06-14T01:30:37;11.18;;;7.90;;
71202;SDS011;58929;47.490;19.090;2023-06-14T01:33:06;10.13;;;6.97;;
71202;SDS011;58929;47.490;19.090;2023-06-14T01:35:42;11.88;;;8.65;;
71202;SDS011;58929;47.490;19.090;2023-06-14T01:38:12;10.10;;;8.02;;
71202;SDS011;58929;47.490;19.090;2023-06-14T01:40:41;13.80;;;7.60;;
71202;SDS011;58929;47.490;19.090;2023-06-14T01:43:10;12.43;;;8.55;;
71202;SDS011;58929;47.490;19.090;2023-06-14T01:45:40;9.52;;;7.85;;
71202;SDS011;58929;47.490;19.090;2023-06-14T01:48:33;11.77;;;8.40;;
71202;SDS011;58929;47.490;19.090;2023-06-14T01:51:03;12.75;;;8.45;;
71202;SDS011;58929;47.490;19.090;2023-06-14T01:53:33;13.52;;;7.70;;
71202;SDS011;58929;47.490;19.090;2023-06-14T01:56:01;12.68;;;8.23;;
71202;SDS011;58929;47.490;19.090;2023-06-14T01:58:30;10.63;;;8.43;;
71202;SDS011;58929;47.490;19.090;2023-06-14T02:01:00;11.23;;;8.57;;
71202;SDS011;58929;47.490;19.090;2023-06-14T02:03:29;13.25;;;9.02;;
71202;SDS011;58929;47.490;19.090;2023-06-14T02:05:57;11.25;;;8.35;;
71202;SDS011;58929;47.490;19.090;2023-06-14T02:08:26;10.38;;;7.82;;
71202;SDS011;58929;47.490;19.090;2023-06-14T02:10:55;14.13;;;9.57;;
71202;SDS011;58929;47.490;19.090;2023-06-14T02:13:24;11.68;;;9.00;;
71202;SDS011;58929;47.490;19.090;2023-06-14T02:15:52;10.77;;;8.13;;
71202;SDS011;58929;47.490;19.090;2023-06-14T02:18:22;11.65;;;9.00;;
71202;SDS011;58929;47.490;19.090;2023-06-14T02:21:16;12.90;;;8.77;;
71202;SDS011;58929;47.490;19.090;2023-06-14T02:23:45;12.18;;;9.30;;
71202;SDS011;58929;47.490;19.090;2023-06-14T02:26:15;11.50;;;8.27;;
71202;SDS011;58929;47.490;19.090;2023-06-14T02:28:43;12.68;;;9.02;;
71202;SDS011;58929;47.490;19.090;2023-06-14T02:31:11;13.18;;;9.32;;
71202;SDS011;58929;47.490;19.090;2023-06-14T02:33:39;13.38;;;9.73;;
71202;SDS011;58929;47.490;19.090;2023-06-14T02:36:07;17.13;;;9.02;;
71202;SDS011;58929;47.490;19.090;2023-06-14T02:38:38;13.10;;;8.88;;
71202;SDS011;58929;47.490;19.090;2023-06-14T02:41:08;13.77;;;9.23;;
71202;SDS011;58929;47.490;19.090;2023-06-14T02:43:37;16.77;;;9.10;;
71202;SDS011;58929;47.490;19.090;2023-06-14T02:46:05;19.75;;;9.68;;
71202;SDS011;58929;47.490;19.090;2023-06-14T02:48:34;9.95;;;8.27;;
71202;SDS011;58929;47.490;19.090;2023-06-14T02:51:09;15.80;;;10.32;;
71202;SDS011;58929;47.490;19.090;2023-06-14T02:53:37;13.55;;;9.50;;
71202;SDS011;58929;47.490;19.090;2023-06-14T02:56:06;11.73;;;9.43;;
71202;SDS011;58929;47.490;19.090;2023-06-14T02:58:39;18.23;;;11.02;;
71202;SDS011;58929;47.490;19.090;2023-06-14T03:01:07;15.07;;;10.43;;
71202;SDS011;58929;47.490;19.090;2023-06-14T03:03:40;11.55;;;8.82;;
71202;SDS011;58929;47.490;19.090;2023-06-14T03:06:09;10.40;;;8.15;;
71202;SDS011;58929;47.490;19.090;2023-06-14T03:08:43;12.10;;;7.80;;
71202;SDS011;58929;47.490;19.090;2023-06-14T03:11:14;12.35;;;8.70;;
71202;SDS011;58929;47.490;19.090;2023-06-14T03:13:45;13.30;;;8.75;;
71202;SDS011;58929;47.490;19.090;2023-06-14T03:16:18;13.32;;;9.13;;
71202;SDS011;58929;47.490;19.090;2023-06-14T03:18:48;11.90;;;8.65;;
71202;SDS011;58929;47.490;19.090;2023-06-14T03:21:17;12.20;;;8.57;;
71202;SDS011;58929;47.490;19.090;2023-06-14T03:23:46;13.95;;;8.55;;
71202;SDS011;58929;47.490;19.090;2023-06-14T03:26:14;14.15;;;9.45;;
71202;SDS011;58929;47.490;19.090;2023-06-14T03:28:50;13.68;;;8.60;;
71202;SDS011;58929;47.490;19.090;2023-06-14T03:31:19;15.00;;;9.60;;
71202;SDS011;58929;47.490;19.090;2023-06-14T03:33:47;12.30;;;9.38;;
71202;SDS011;58929;47.490;19.090;2023-06-14T03:36:17;12.57;;;8.80;;
71202;SDS011;58929;47.490;19.090;2023-06-14T03:38:45;16.55;;;10.07;;
71202;SDS011;58929;47.490;19.090;2023-06-14T03:41:16;13.95;;;10.00;;
71202;SDS011;58929;47.490;19.090;2023-06-14T03:43:44;12.27;;;8.60;;
71202;SDS011;58929;47.490;19.090;2023-06-14T03:46:16;12.93;;;9.20;;
71202;SDS011;58929;47.490;19.090;2023-06-14T03:48:45;11.55;;;9.00;;
71202;SDS011;58929;47.490;19.090;2023-06-14T03:51:13;14.25;;;9.73;;
71202;SDS011;58929;47.490;19.090;2023-06-14T03:53:42;10.88;;;8.00;;
71202;SDS011;58929;47.490;19.090;2023-06-14T03:56:31;15.32;;;10.13;;
71202;SDS011;58929;47.490;19.090;2023-06-14T03:59:01;16.25;;;9.00;;
71202;SDS011;58929;47.490;19.090;2023-06-14T04:01:31;17.52;;;9.38;;
71202;SDS011;58929;47.490;19.090;2023-06-14T04:04:00;13.40;;;8.27;;
71202;SDS011;58929;47.490;19.090;2023-06-14T04:06:31;11.57;;;8.85;;
71202;SDS011;58929;47.490;19.090;2023-06-14T04:08:59;16.73;;;8.85;;
71202;SDS011;58929;47.490;19.090;2023-06-14T04:11:31;12.35;;;8.45;;
71202;SDS011;58929;47.490;19.090;2023-06-14T04:13:59;12.57;;;8.70;;
71202;SDS011;58929;47.490;19.090;2023-06-14T04:16:31;13.32;;;8.60;;
71202;SDS011;58929;47.490;19.090;2023-06-14T04:19:00;13.30;;;8.85;;
71202;SDS011;58929;47.490;19.090;2023-06-14T04:21:28;11.82;;;8.70;;
71202;SDS011;58929;47.490;19.090;2023-06-14T04:23:58;11.57;;;8.52;;
71202;SDS011;58929;47.490;19.090;2023-06-14T04:26:30;13.23;;;9.65;;
71202;SDS011;58929;47.490;19.090;2023-06-14T04:29:00;13.43;;;9.45;;
71202;SDS011;58929;47.490;19.090;2023-06-14T04:31:35;18.17;;;11.05;;
71202;SDS011;58929;47.490;19.090;2023-06-14T04:34:07;12.25;;;9.43;;
71202;SDS011;58929;47.490;19.090;2023-06-14T04:36:36;14.05;;;8.82;;
71202;SDS011;58929;47.490;19.090;2023-06-14T04:39:05;18.75;;;10.52;;
71202;SDS011;58929;47.490;19.090;2023-06-14T04:41:33;13.85;;;9.52;;
71202;SDS011;58929;47.490;19.090;2023-06-14T04:44:03;14.05;;;10.55;;
71202;SDS011;58929;47.490;19.090;2023-06-14T04:46:39;12.45;;;9.25;;
71202;SDS011;58929;47.490;19.090;2023-06-14T04:49:18;21.48;;;9.82;;
71202;SDS011;58929;47.490;19.090;2023-06-14T04:51:46;15.57;;;9.75;;
71202;SDS011;58929;47.490;19.090;2023-06-14T04:54:18;17.87;;;11.40;;
71202;SDS011;58929;47.490;19.090;2023-06-14T04:56:46;13.05;;;9.48;;
71202;SDS011;58929;47.490;19.090;2023-06-14T04:59:15;13.15;;;9.90;;
71202;SDS011;58929;47.490;19.090;2023-06-14T05:01:45;16.60;;;10.38;;
71202;SDS011;58929;47.490;19.090;2023-06-14T05:04:17;17.25;;;10.23;;
71202;SDS011;58929;47.490;19.090;2023-06-14T05:06:45;11.38;;;9.00;;
71202;SDS011;58929;47.490;19.090;2023-06-14T05:09:15;15.48;;;10.88;;
71202;SDS011;58929;47.490;19.090;2023-06-14T05:11:43;13.73;;;9.68;;
71202;SDS011;58929;47.490;19.090;2023-06-14T05:14:16;15.73;;;11.07;;
71202;SDS011;58929;47.490;19.090;2023-06-14T05:16:47;14.40;;;10.55;;
71202;SDS011;58929;47.490;19.090;2023-06-14T05:19:22;14.00;;;9.18;;
71202;SDS011;58929;47.490;19.090;2023-06-14T05:21:50;15.25;;;10.48;;
71202;SDS011;58929;47.490;19.090;2023-06-14T05:24:20;14.35;;;9.88;;
71202;SDS011;58929;47.490;19.090;2023-06-14T05:26:48;17.35;;;11.63;;
71202;SDS011;58929;47.490;19.090;2023-06-14T05:29:16;16.20;;;9.73;;
71202;SDS011;58929;47.490;19.090;2023-06-14T05:31:44;17.40;;;10.00;;
71202;SDS011;58929;47.490;19.090;2023-06-14T05:34:14;15.93;;;9.73;;
71202;SDS011;58929;47.490;19.090;2023-06-14T05:36:42;13.45;;;9.80;;
71202;SDS011;58929;47.490;19.090;2023-06-14T05:39:17;16.85;;;9.70;;
71202;SDS011;58929;47.490;19.090;2023-06-14T05:41:46;13.27;;;9.07;;
71202;SDS011;58929;47.490;19.090;2023-06-14T05:44:16;16.55;;;9.13;;
71202;SDS011;58929;47.490;19.090;2023-06-14T05:46:45;12.77;;;8.65;;
71202;SDS011;58929;47.490;19.090;2023-06-14T05:49:22;20.25;;;12.45;;
71202;SDS011;58929;47.490;19.090;2023-06-14T05:51:50;28.98;;;18.75;;
71202;SDS011;58929;47.490;19.090;2023-06-14T05:54:18;18.80;;;12.23;;
71202;SDS011;58929;47.490;19.090;2023-06-14T05:56:46;15.07;;;8.85;;
71202;SDS011;58929;47.490;19.090;2023-06-14T05:59:14;15.18;;;10.05;;
71202;SDS011;58929;47.490;19.090;2023-06-14T06:01:43;28.88;;;11.70;;
71202;SDS011;58929;47.490;19.090;2023-06-14T06:04:11;21.35;;;10.40;;
71202;SDS011;58929;47.490;19.090;2023-06-14T06:06:40;14.35;;;9.73;;
71202;SDS011;58929;47.490;19.090;2023-06-14T06:09:12;13.10;;;8.60;;
71202;SDS011;58929;47.490;19.090;2023-06-14T06:11:41;10.95;;;8.68;;
71202;SDS011;58929;47.490;19.090;2023-06-14T06:14:18;14.75;;;8.98;;
71202;SDS011;58929;47.490;19.090;2023-06-14T06:16:46;16.05;;;9.57;;
71202;SDS011;58929;47.490;19.090;2023-06-14T06:19:19;14.20;;;9.43;;
71202;SDS011;58929;47.490;19.090;2023-06-14T06:21:48;14.30;;;9.07;;
71202;SDS011;58929;47.490;19.090;2023-06-14T06:24:17;15.70;;;9.82;;
71202;SDS011;58929;47.490;19.090;2023-06-14T06:26:45;16.38;;;10.43;;
71202;SDS011;58929;47.490;19.090;2023-06-14T06:29:13;11.60;;;8.70;;
71202;SDS011;58929;47.490;19.090;2023-06-14T06:31:41;23.67;;;14.50;;
71202;SDS011;58929;47.490;19.090;2023-06-14T06:34:09;16.23;;;9.05;;
71202;SDS011;58929;47.490;19.090;2023-06-14T06:36:38;14.30;;;8.02;;
71202;SDS011;58929;47.490;19.090;2023-06-14T06:39:07;10.77;;;7.75;;
71202;SDS011;58929;47.490;19.090;2023-06-14T06:41:37;12.68;;;8.10;;
71202;SDS011;58929;47.490;19.090;2023-06-14T06:44:06;16.50;;;8.57;;
71202;SDS011;58929;47.490;19.090;2023-06-14T06:46:34;10.00;;;7.80;;
71202;SDS011;58929;47.490;19.090;2023-06-14T06:49:07;18.02;;;8.10;;
71202;SDS011;58929;47.490;19.090;2023-06-14T06:51:35;11.48;;;7.43;;
71202;SDS011;58929;47.490;19.090;2023-06-14T06:54:03;26.45;;;16.85;;
71202;SDS011;58929;47.490;19.090;2023-06-14T06:56:40;10.75;;;7.20;;
71202;SDS011;58929;47.490;19.090;2023-06-14T06:59:08;15.48;;;8.50;;
71202;SDS011;58929;47.490;19.090;2023-06-14T07:01:36;13.18;;;8.05;;
71202;SDS011;58929;47.490;19.090;2023-06-14T07:04:05;11.77;;;7.82;;
71202;SDS011;58929;47.490;19.090;2023-06-14T07:06:33;14.27;;;8.48;;
71202;SDS011;58929;47.490;19.090;2023-06-14T07:09:01;13.68;;;7.40;;
71202;SDS011;58929;47.490;19.090;2023-06-14T07:11:31;12.90;;;7.47;;
71202;SDS011;58929;47.490;19.090;2023-06-14T07:14:26;14.70;;;8.40;;
71202;SDS011;58929;47.490;19.090;2023-06-14T07:16:54;14.93;;;8.00;;
71202;SDS011;58929;47.490;19.090;2023-06-14T07:19:22;13.07;;;7.15;;
71202;SDS011;58929;47.490;19.090;2023-06-14T07:21:50;17.50;;;7.30;;
71202;SDS011;58929;47.490;19.090;2023-06-14T07:24:19;13.63;;;7.47;;
71202;SDS011;58929;47.490;19.090;2023-06-14T07:26:49;15.40;;;8.30;;
71202;SDS011;58929;47.490;19.090;2023-06-14T07:29:17;12.45;;;7.55;;
71202;SDS011;58929;47.490;19.090;2023-06-14T07:31:56;13.90;;;7.93;;
71202;SDS011;58929;47.490;19.090;2023-06-14T07:34:24;14.38;;;7.10;;
71202;SDS011;58929;47.490;19.090;2023-06-14T07:36:52;13.13;;;7.55;;
71202;SDS011;58929;47.490;19.090;2023-06-14T07:39:21;18.55;;;6.95;;
71202;SDS011;58929;47.490;19.090;2023-06-14T07:41:49;12.00;;;6.70;;
71202;SDS011;58929;47.490;19.090;2023-06-14T07:44:17;22.75;;;16.17;;
71202;SDS011;58929;47.490;19.090;2023-06-14T07:46:45;14.68;;;6.97;;
71202;SDS011;58929;47.490;19.090;2023-06-14T07:49:17;12.48;;;6.53;;
71202;SDS011;58929;47.490;19.090;2023-06-14T07:51:45;18.42;;;7.03;;
71202;SDS011;58929;47.490;19.090;2023-06-14T07:54:14;17.90;;;6.47;;
71202;SDS011;58929;47.490;19.090;2023-06-14T07:56:43;9.98;;;6.75;;
71202;SDS011;58929;47.490;19.090;2023-06-14T07:59:11;18.77;;;6.97;;
71202;SDS011;58929;47.490;19.090;2023-06-14T08:01:39;9.68;;;6.03;;
71202;SDS011;58929;47.490;19.090;2023-06-14T08:04:13;10.40;;;6.65;;
71202;SDS011;58929;47.490;19.090;2023-06-14T08:06:43;11.38;;;7.10;;
71202;SDS011;58929;47.490;19.090;2023-06-14T08:09:12;9.93;;;6.43;;
71202;SDS011;58929;47.490;19.090;2023-06-14T08:11:41;12.43;;;7.20;;
71202;SDS011;58929;47.490;19.090;2023-06-14T08:14:09;11.65;;;7.07;;
71202;SDS011;58929;47.490;19.090;2023-06-14T08:16:37;14.55;;;7.80;;
71202;SDS011;58929;47.490;19.090;2023-06-14T08:19:06;12.32;;;7.13;;
71202;SDS011;58929;47.490;19.090;2023-06-14T08:21:38;11.30;;;6.93;;
71202;SDS011;58929;47.490;19.090;2023-06-14T08:24:08;11.60;;;6.93;;
71202;SDS011;58929;47.490;19.090;2023-06-14T08:26:36;13.20;;;7.03;;
71202;SDS011;58929;47.490;19.090;2023-06-14T08:29:07;15.75;;;7.43;;
71202;SDS011;58929;47.490;19.090;2023-06-14T08:31:35;14.38;;;6.10;;
71202;SDS011;58929;47.490;19.090;2023-06-14T08:34:06;15.32;;;6.70;;
71202;SDS011;58929;47.490;19.090;2023-06-14T08:36:34;12.43;;;6.95;;
71202;SDS011;58929;47.490;19.090;2023-06-14T08:39:03;12.52;;;6.35;;
71202;SDS011;58929;47.490;19.090;2023-06-14T08:41:33;19.25;;;5.88;;
71202;SDS011;58929;47.490;19.090;2023-06-14T08:44:01;12.98;;;6.43;;
71202;SDS011;58929;47.490;19.090;2023-06-14T08:46:30;13.30;;;6.07;;
71202;SDS011;58929;47.490;19.090;2023-06-14T08:49:00;13.30;;;7.38;;
71202;SDS011;58929;47.490;19.090;2023-06-14T08:51:37;9.93;;;7.00;;
71202;SDS011;58929;47.490;19.090;2023-06-14T08:54:07;13.50;;;6.18;;
71202;SDS011;58929;47.490;19.090;2023-06-14T08:56:37;9.25;;;5.85;;
71202;SDS011;58929;47.490;19.090;2023-06-14T08:59:05;9.02;;;5.40;;
71202;SDS011;58929;47.490;19.090;2023-06-14T09:01:36;17.80;;;6.88;;
71202;SDS011;58929;47.490;19.090;2023-06-14T09:04:05;9.15;;;6.35;;
71202;SDS011;58929;47.490;19.090;2023-06-14T09:06:34;10.57;;;5.60;;
71202;SDS011;58929;47.490;19.090;2023-06-14T09:09:03;12.60;;;5.82;;
71202;SDS011;58929;47.490;19.090;2023-06-14T09:11:32;21.15;;;7.32;;
71202;SDS011;58929;47.490;19.090;2023-06-14T09:14:01;12.75;;;5.97;;
71202;SDS011;58929;47.490;19.090;2023-06-14T09:16:31;12.63;;;6.85;;
71202;SDS011;58929;47.490;19.090;2023-06-14T09:19:00;13.13;;;6.43;;
71202;SDS011;58929;47.490;19.090;2023-06-14T09:21:29;16.65;;;6.65;;
71202;SDS011;58929;47.490;19.090;2023-06-14T09:24:02;10.70;;;5.45;;
71202;SDS011;58929;47.490;19.090;2023-06-14T09:26:31;10.85;;;6.13;;
71202;SDS011;58929;47.490;19.090;2023-06-14T09:28:59;10.05;;;6.20;;
71202;SDS011;58929;47.490;19.090;2023-06-14T09:31:36;12.43;;;5.95;;
71202;SDS011;58929;47.490;19.090;2023-06-14T09:34:05;13.35;;;6.53;;
71202;SDS011;58929;47.490;19.090;2023-06-14T09:36:33;9.57;;;6.05;;
71202;SDS011;58929;47.490;19.090;2023-06-14T09:39:03;10.02;;;5.57;;
71202;SDS011;58929;47.490;19.090;2023-06-14T09:41:33;12.52;;;6.35;;
71202;SDS011;58929;47.490;19.090;2023-06-14T09:44:04;9.32;;;5.85;;
71202;SDS011;58929;47.490;19.090;2023-06-14T09:46:41;8.07;;;4.80;;
71202;SDS011;58929;47.490;19.090;2023-06-14T09:49:09;9.25;;;4.43;;
71202;SDS011;58929;47.490;19.090;2023-06-14T09:51:41;8.93;;;4.93;;
71202;SDS011;58929;47.490;19.090;2023-06-14T09:54:12;7.47;;;5.43;;
71202;SDS011;58929;47.490;19.090;2023-06-14T09:56:44;11.25;;;5.43;;
71202;SDS011;58929;47.490;19.090;2023-06-14T09:59:13;9.65;;;4.65;;
71202;SDS011;58929;47.490;19.090;2023-06-14T10:01:44;16.55;;;4.60;;
71202;SDS011;58929;47.490;19.090;2023-06-14T10:04:12;11.95;;;5.07;;
71202;SDS011;58929;47.490;19.090;2023-06-14T10:06:41;11.10;;;3.85;;
71202;SDS011;58929;47.490;19.090;2023-06-14T10:09:11;8.88;;;4.05;;
71202;SDS011;58929;47.490;19.090;2023-06-14T10:11:41;9.82;;;4.57;;
71202;SDS011;58929;47.490;19.090;2023-06-14T10:14:12;10.20;;;4.65;;
71202;SDS011;58929;47.490;19.090;2023-06-14T10:16:45;6.20;;;4.20;;
71202;SDS011;58929;47.490;19.090;2023-06-14T10:19:17;10.98;;;4.22;;
71202;SDS011;58929;47.490;19.090;2023-06-14T10:21:55;6.65;;;4.00;;
71202;SDS011;58929;47.490;19.090;2023-06-14T10:24:26;5.60;;;3.42;;
71202;SDS011;58929;47.490;19.090;2023-06-14T10:26:56;8.65;;;3.90;;
71202;SDS011;58929;47.490;19.090;2023-06-14T10:29:26;7.60;;;4.25;;
71202;SDS011;58929;47.490;19.090;2023-06-14T10:32:00;6.20;;;4.25;;
71202;SDS011;58929;47.490;19.090;2023-06-14T10:34:30;14.48;;;4.25;;
71202;SDS011;58929;47.490;19.090;2023-06-14T10:37:02;6.85;;;5.03;;
71202;SDS011;58929;47.490;19.090;2023-06-14T10:39:31;7.00;;;4.72;;
71202;SDS011;58929;47.490;19.090;2023-06-14T10:42:01;11.57;;;4.47;;
71202;SDS011;58929;47.490;19.090;2023-06-14T10:44:41;8.52;;;4.28;;
71202;SDS011;58929;47.490;19.090;2023-06-14T10:49:42;10.40;;;4.90;;
71202;SDS011;58929;47.490;19.090;2023-06-14T10:52:11;9.40;;;5.30;;
71202;SDS011;58929;47.490;19.090;2023-06-14T10:54:59;5.88;;;4.13;;
71202;SDS011;58929;47.490;19.090;2023-06-14T10:57:33;9.20;;;4.97;;
71202;SDS011;58929;47.490;19.090;2023-06-14T11:00:06;8.10;;;4.03;;
71202;SDS011;58929;47.490;19.090;2023-06-14T11:02:46;6.88;;;3.97;;
71202;SDS011;58929;47.490;19.090;2023-06-14T11:05:16;10.32;;;4.25;;
71202;SDS011;58929;47.490;19.090;2023-06-14T11:07:53;10.05;;;4.38;;
71202;SDS011;58929;47.490;19.090;2023-06-14T11:10:26;8.30;;;3.70;;
71202;SDS011;58929;47.490;19.090;2023-06-14T11:12:58;5.53;;;3.65;;
71202;SDS011;58929;47.490;19.090;2023-06-14T11:15:29;11.23;;;4.13;;
71202;SDS011;58929;47.490;19.090;2023-06-14T11:18:00;6.43;;;3.83;;
71202;SDS011;58929;47.490;19.090;2023-06-14T11:20:31;6.47;;;3.97;;
71202;SDS011;58929;47.490;19.090;2023-06-14T11:22:59;13.02;;;4.30;;
71202;SDS011;58929;47.490;19.090;2023-06-14T11:25:27;6.35;;;3.58;;
71202;SDS011;58929;47.490;19.090;2023-06-14T11:27:56;8.10;;;3.50;;
71202;SDS011;58929;47.490;19.090;2023-06-14T11:30:24;9.05;;;3.58;;
71202;SDS011;58929;47.490;19.090;2023-06-14T11:32:53;3.58;;;2.95;;
71202;SDS011;58929;47.490;19.090;2023-06-14T11:35:24;4.30;;;2.90;;
71202;SDS011;58929;47.490;19.090;2023-06-14T11:37:54;8.63;;;3.10;;
71202;SDS011;58929;47.490;19.090;2023-06-14T11:40:23;6.10;;;3.40;;
71202;SDS011;58929;47.490;19.090;2023-06-14T11:42:57;10.30;;;3.40;;
71202;SDS011;58929;47.490;19.090;2023-06-14T11:45:26;6.55;;;3.80;;
71202;SDS011;58929;47.490;19.090;2023-06-14T11:47:54;6.13;;;3.80;;
71202;SDS011;58929;47.490;19.090;2023-06-14T11:50:22;5.05;;;3.35;;
71202;SDS011;58929;47.490;19.090;2023-06-14T11:52:56;6.55;;;3.80;;
71202;SDS011;58929;47.490;19.090;2023-06-14T11:55:26;4.65;;;3.63;;
71202;SDS011;58929;47.490;19.090;2023-06-14T11:57:54;6.30;;;3.53;;
71202;SDS011;58929;47.490;19.090;2023-06-14T12:00:24;7.38;;;3.08;;
71202;SDS011;58929;47.490;19.090;2023-06-14T12:02:52;7.40;;;3.47;;
71202;SDS011;58929;47.490;19.090;2023-06-14T12:05:23;10.40;;;3.90;;
71202;SDS011;58929;47.490;19.090;2023-06-14T12:07:57;4.78;;;3.28;;
71202;SDS011;58929;47.490;19.090;2023-06-14T12:10:35;5.80;;;3.00;;
71202;SDS011;58929;47.490;19.090;2023-06-14T12:13:07;5.75;;;3.90;;
71202;SDS011;58929;47.490;19.090;2023-06-14T12:15:34;7.70;;;4.30;;
71202;SDS011;58929;47.490;19.090;2023-06-14T12:18:05;9.15;;;4.68;;
71202;SDS011;58929;47.490;19.090;2023-06-14T12:20:34;13.32;;;4.57;;
71202;SDS011;58929;47.490;19.090;2023-06-14T12:23:04;7.53;;;3.85;;
71202;SDS011;58929;47.490;19.090;2023-06-14T12:25:34;14.60;;;3.83;;
71202;SDS011;58929;47.490;19.090;2023-06-14T12:28:04;5.55;;;3.60;;
71202;SDS011;58929;47.490;19.090;2023-06-14T12:30:32;8.07;;;4.85;;
71202;SDS011;58929;47.490;19.090;2023-06-14T12:33:01;5.80;;;4.18;;
71202;SDS011;58929;47.490;19.090;2023-06-14T12:35:29;12.05;;;3.63;;
71202;SDS011;58929;47.490;19.090;2023-06-14T12:37:57;9.90;;;3.88;;
71202;SDS011;58929;47.490;19.090;2023-06-14T12:40:26;7.65;;;3.65;;
71202;SDS011;58929;47.490;19.090;2023-06-14T12:42:56;5.85;;;3.42;;
71202;SDS011;58929;47.490;19.090;2023-06-14T12:45:24;6.30;;;3.28;;
71202;SDS011;58929;47.490;19.090;2023-06-14T12:47:52;4.60;;;3.38;;
71202;SDS011;58929;47.490;19.090;2023-06-14T12:50:20;4.93;;;3.53;;
71202;SDS011;58929;47.490;19.090;2023-06-14T12:52:52;6.78;;;3.38;;
71202;SDS011;58929;47.490;19.090;2023-06-14T12:55:20;6.05;;;3.60;;
71202;SDS011;58929;47.490;19.090;2023-06-14T12:57:48;10.80;;;3.83;;
71202;SDS011;58929;47.490;19.090;2023-06-14T13:00:19;8.57;;;3.58;;
71202;SDS011;58929;47.490;19.090;2023-06-14T13:02:49;3.58;;;2.90;;
71202;SDS011;58929;47.490;19.090;2023-06-14T13:05:17;3.80;;;3.33;;
71202;SDS011;58929;47.490;19.090;2023-06-14T13:07:45;8.95;;;4.03;;
71202;SDS011;58929;47.490;19.090;2023-06-14T13:10:13;6.13;;;3.55;;
71202;SDS011;58929;47.490;19.090;2023-06-14T13:12:42;5.35;;;3.47;;
71202;SDS011;58929;47.490;19.090;2023-06-14T13:15:11;6.82;;;3.55;;
71202;SDS011;58929;47.490;19.090;2023-06-14T13:17:41;6.93;;;3.38;;
71202;SDS011;58929;47.490;19.090;2023-06-14T13:20:10;6.07;;;3.28;;
71202;SDS011;58929;47.490;19.090;2023-06-14T13:22:39;7.78;;;3.40;;
71202;SDS011;58929;47.490;19.090;2023-06-14T13:25:07;10.40;;;4.50;;
71202;SDS011;58929;47.490;19.090;2023-06-14T13:27:35;7.32;;;3.67;;
71202;SDS011;58929;47.490;19.090;2023-06-14T13:30:04;5.88;;;3.83;;
71202;SDS011;58929;47.490;19.090;2023-06-14T13:32:33;9.50;;;5.85;;
71202;SDS011;58929;47.490;19.090;2023-06-14T13:35:04;5.78;;;3.88;;
71202;SDS011;58929;47.490;19.090;2023-06-14T13:37:32;9.07;;;3.50;;
71202;SDS011;58929;47.490;19.090;2023-06-14T13:40:00;4.75;;;3.67;;
71202;SDS011;58929;47.490;19.090;2023-06-14T13:42:29;7.53;;;3.33;;
71202;SDS011;58929;47.490;19.090;2023-06-14T13:44:58;6.43;;;3.63;;
71202;SDS011;58929;47.490;19.090;2023-06-14T13:47:26;6.10;;;3.47;;
71202;SDS011;58929;47.490;19.090;2023-06-14T13:49:54;9.80;;;5.00;;
71202;SDS011;58929;47.490;19.090;2023-06-14T13:52:25;10.50;;;6.78;;
71202;SDS011;58929;47.490;19.090;2023-06-14T13:55:00;6.72;;;3.97;;
71202;SDS011;58929;47.490;19.090;2023-06-14T13:57:29;6.25;;;3.38;;
71202;SDS011;58929;47.490;19.090;2023-06-14T13:59:57;7.35;;;3.55;;
71202;SDS011;58929;47.490;19.090;2023-06-14T14:02:37;7.35;;;3.30;;
71202;SDS011;58929;47.490;19.090;2023-06-14T14:05:06;8.63;;;3.10;;
71202;SDS011;58929;47.490;19.090;2023-06-14T14:07:37;4.72;;;3.25;;
71202;SDS011;58929;47.490;19.090;2023-06-14T14:10:06;6.70;;;3.65;;
71202;SDS011;58929;47.490;19.090;2023-06-14T14:12:35;4.78;;;3.30;;
71202;SDS011;58929;47.490;19.090;2023-06-14T14:15:06;8.00;;;3.78;;
71202;SDS011;58929;47.490;19.090;2023-06-14T14:17:40;6.38;;;3.13;;
71202;SDS011;58929;47.490;19.090;2023-06-14T14:20:10;4.43;;;2.90;;
71202;SDS011;58929;47.490;19.090;2023-06-14T14:22:44;6.60;;;3.28;;
71202;SDS011;58929;47.490;19.090;2023-06-14T14:25:12;10.98;;;3.40;;
71202;SDS011;58929;47.490;19.090;2023-06-14T14:27:40;6.38;;;3.03;;
71202;SDS011;58929;47.490;19.090;2023-06-14T14:30:09;6.57;;;3.40;;
71202;SDS011;58929;47.490;19.090;2023-06-14T14:32:38;7.30;;;3.25;;
71202;SDS011;58929;47.490;19.090;2023-06-14T14:35:12;7.47;;;3.20;;
71202;SDS011;58929;47.490;19.090;2023-06-14T14:37:40;7.88;;;3.03;;
71202;SDS011;58929;47.490;19.090;2023-06-14T14:40:10;10.73;;;3.17;;
71202;SDS011;58929;47.490;19.090;2023-06-14T14:42:43;3.85;;;3.17;;
71202;SDS011;58929;47.490;19.090;2023-06-14T14:45:11;5.55;;;3.63;;